sensor_id;sensor_type;location;lat;lon;timestamp;pressure;altitude;pressure_sealevel;temperature;humidity
59487;BME280;45298;54.918;73.504;2023-02-02T00:01:45;101495.81;;;-21.92;73.23
59487;BME280;45298;54.918;73.504;2023-02-02T00:04:23;101494.09;;;-22.01;73.75
59487;BME280;45298;54.918;73.504;2023-02-02T00:06:52;101453.63;;;-22.22;73.91
59487;BME280;45298;54.918;73.504;2023-02-02T00:09:22;101495.19;;;-21.89;73.79
59487;BME280;45298;54.918;73.504;2023-02-02T00:11:50;101470.00;;;-22.08;73.82
59487;BME280;45298;54.918;73.504;2023-02-02T00:14:20;101459.03;;;-22.09;73.82
59487;BME280;45298;54.918;73.504;2023-02-02T00:16:50;101507.19;;;-21.86;73.53
59487;BME280;45298;54.918;73.504;2023-02-02T00:19:22;101501.13;;;-21.88;73.90
59487;BME280;45298;54.918;73.504;2023-02-02T00:21:53;101489.75;;;-21.94;73.18
59487;BME280;45298;54.918;73.504;2023-02-02T00:24:22;101487.94;;;-21.86;73.99
59487;BME280;45298;54.918;73.504;2023-02-02T00:26:56;101453.41;;;-22.06;73.40
59487;BME280;45298;54.918;73.504;2023-02-02T00:29:28;101476.88;;;-21.97;73.69
59487;BME280;45298;54.918;73.504;2023-02-02T00:31:57;101458.91;;;-22.10;73.47
59487;BME280;45298;54.918;73.504;2023-02-02T00:34:26;101465.22;;;-22.05;73.52
59487;BME280;45298;54.918;73.504;2023-02-02T00:36:57;101460.63;;;-22.00;73.78
59487;BME280;45298;54.918;73.504;2023-02-02T00:39:25;101488.97;;;-21.84;73.71
59487;BME280;45298;54.918;73.504;2023-02-02T00:41:54;101471.38;;;-21.93;73.99
59487;BME280;45298;54.918;73.504;2023-02-02T00:44:23;101490.97;;;-21.71;74.05
59487;BME280;45298;54.918;73.504;2023-02-02T00:47:10;101456.06;;;-21.85;74.42
59487;BME280;45298;54.918;73.504;2023-02-02T00:49:39;101476.19;;;-21.77;73.80
59487;BME280;45298;54.918;73.504;2023-02-02T00:52:07;101420.41;;;-22.09;73.50
59487;BME280;45298;54.918;73.504;2023-02-02T00:54:36;101487.41;;;-21.73;73.50
59487;BME280;45298;54.918;73.504;2023-02-02T00:57:05;101466.13;;;-21.85;74.01
59487;BME280;45298;54.918;73.504;2023-02-02T00:59:34;101368.81;;;-22.42;73.72
59487;BME280;45298;54.918;73.504;2023-02-02T01:02:03;101442.09;;;-22.01;73.45
59487;BME280;45298;54.918;73.504;2023-02-02T01:04:32;101523.78;;;-21.61;73.52
59487;BME280;45298;54.918;73.504;2023-02-02T01:07:00;101456.97;;;-21.85;73.48
59487;BME280;45298;54.918;73.504;2023-02-02T01:09:29;101476.78;;;-21.79;73.80
59487;BME280;45298;54.918;73.504;2023-02-02T01:12:01;101512.88;;;-21.70;73.59
59487;BME280;45298;54.918;73.504;2023-02-02T01:14:30;101477.44;;;-21.91;73.72
59487;BME280;45298;54.918;73.504;2023-02-02T01:16:59;101493.13;;;-21.93;73.25
59487;BME280;45298;54.918;73.504;2023-02-02T01:19:28;101501.09;;;-21.80;73.84
59487;BME280;45298;54.918;73.504;2023-02-02T01:21:56;101509.97;;;-21.83;73.55
59487;BME280;45298;54.918;73.504;2023-02-02T01:24:25;101521.22;;;-21.80;73.60
59487;BME280;45298;54.918;73.504;2023-02-02T01:26:55;101474.25;;;-21.98;73.74
59487;BME280;45298;54.918;73.504;2023-02-02T01:29:24;101502.41;;;-21.83;73.45
59487;BME280;45298;54.918;73.504;2023-02-02T01:31:52;101469.66;;;-22.02;73.65
59487;BME280;45298;54.918;73.504;2023-02-02T01:34:22;101497.59;;;-21.91;73.33
59487;BME280;45298;54.918;73.504;2023-02-02T01:36:51;101486.53;;;-22.01;74.15
59487;BME280;45298;54.918;73.504;2023-02-02T01:39:19;101458.59;;;-22.13;73.53
59487;BME280;45298;54.918;73.504;2023-02-02T01:41:51;101463.06;;;-22.20;73.66
59487;BME280;45298;54.918;73.504;2023-02-02T01:47:31;101492.47;;;-22.10;73.31
59487;BME280;45298;54.918;73.504;2023-02-02T01:50:02;101463.09;;;-22.28;73.20
59487;BME280;45298;54.918;73.504;2023-02-02T01:52:33;101468.13;;;-22.28;73.47
59487;BME280;45298;54.918;73.504;2023-02-02T01:55:05;101504.66;;;-22.14;73.39
59487;BME280;45298;54.918;73.504;2023-02-02T01:58:13;101518.84;;;-22.06;73.40
59487;BME280;45298;54.918;73.504;2023-02-02T02:00:43;101462.34;;;-22.46;73.65
59487;BME280;45298;54.918;73.504;2023-02-02T02:03:17;101484.13;;;-22.28;73.55
59487;BME280;45298;54.918;73.504;2023-02-02T02:05:54;101501.09;;;-22.16;73.69
59487;BME280;45298;54.918;73.504;2023-02-02T02:08:29;101521.81;;;-22.10;73.61
59487;BME280;45298;54.918;73.504;2023-02-02T02:11:01;101488.56;;;-22.25;73.95
59487;BME280;45298;54.918;73.504;2023-02-02T02:13:32;101532.91;;;-22.08;73.39
59487;BME280;45298;54.918;73.504;2023-02-02T02:16:57;101461.31;;;-22.48;73.20
59487;BME280;45298;54.918;73.504;2023-02-02T02:22:43;101494.28;;;-22.45;73.53
59487;BME280;45298;54.918;73.504;2023-02-02T02:25:52;101539.50;;;-22.28;73.59
59487;BME280;45298;54.918;73.504;2023-02-02T02:29:00;101530.63;;;-22.33;73.33
59487;BME280;45298;54.918;73.504;2023-02-02T02:42:21;101455.63;;;-22.83;72.72
59487;BME280;45298;54.918;73.504;2023-02-02T02:44:52;101440.00;;;-22.98;73.20
59487;BME280;45298;54.918;73.504;2023-02-02T02:47:22;101517.69;;;-22.46;73.47
59487;BME280;45298;54.918;73.504;2023-02-02T02:49:51;101538.00;;;-22.35;73.02
59487;BME280;45298;54.918;73.504;2023-02-02T02:52:20;101502.13;;;-22.51;73.35
59487;BME280;45298;54.918;73.504;2023-02-02T02:54:51;101497.84;;;-22.52;73.20
59487;BME280;45298;54.918;73.504;2023-02-02T03:06:04;101543.28;;;-22.23;73.44
59487;BME280;45298;54.918;73.504;2023-02-02T03:08:39;101504.63;;;-22.42;73.17
59487;BME280;45298;54.918;73.504;2023-02-02T03:11:12;101522.03;;;-22.35;72.88
59487;BME280;45298;54.918;73.504;2023-02-02T03:13:42;101525.25;;;-22.27;73.51
59487;BME280;45298;54.918;73.504;2023-02-02T03:16:15;101530.59;;;-22.24;73.03
59487;BME280;45298;54.918;73.504;2023-02-02T03:18:44;101506.63;;;-22.29;72.83
59487;BME280;45298;54.918;73.504;2023-02-02T03:21:13;101535.88;;;-22.12;73.31
59487;BME280;45298;54.918;73.504;2023-02-02T03:23:41;101511.16;;;-22.16;73.50
59487;BME280;45298;54.918;73.504;2023-02-02T03:26:10;101488.88;;;-22.31;73.11
59487;BME280;45298;54.918;73.504;2023-02-02T03:28:39;101523.66;;;-21.99;73.34
59487;BME280;45298;54.918;73.504;2023-02-02T03:31:09;101478.38;;;-22.27;73.10
59487;BME280;45298;54.918;73.504;2023-02-02T03:33:38;101387.59;;;-22.75;72.28
59487;BME280;45298;54.918;73.504;2023-02-02T03:36:07;101534.00;;;-21.87;73.20
59487;BME280;45298;54.918;73.504;2023-02-02T03:38:36;101480.50;;;-22.12;72.92
59487;BME280;45298;54.918;73.504;2023-02-02T03:41:07;101528.28;;;-21.76;72.50
59487;BME280;45298;54.918;73.504;2023-02-02T03:43:36;101535.53;;;-21.70;73.23
59487;BME280;45298;54.918;73.504;2023-02-02T03:46:05;101502.69;;;-21.80;72.75
59487;BME280;45298;54.918;73.504;2023-02-02T03:48:36;101510.16;;;-21.63;72.68
59487;BME280;45298;54.918;73.504;2023-02-02T03:51:10;101521.31;;;-21.50;72.38
59487;BME280;45298;54.918;73.504;2023-02-02T03:53:40;101533.41;;;-21.37;72.55
59487;BME280;45298;54.918;73.504;2023-02-02T03:56:15;101540.31;;;-21.16;73.00
59487;BME280;45298;54.918;73.504;2023-02-02T03:58:46;101506.00;;;-21.24;72.36
59487;BME280;45298;54.918;73.504;2023-02-02T04:01:15;101506.13;;;-21.22;72.53
59487;BME280;45298;54.918;73.504;2023-02-02T04:03:43;101503.91;;;-21.19;72.12
59487;BME280;45298;54.918;73.504;2023-02-02T04:06:13;101487.34;;;-21.26;72.11
59487;BME280;45298;54.918;73.504;2023-02-02T04:08:42;101503.47;;;-21.05;72.60
59487;BME280;45298;54.918;73.504;2023-02-02T04:11:11;101524.47;;;-20.95;72.42
59487;BME280;45298;54.918;73.504;2023-02-02T04:13:43;101529.06;;;-20.81;72.71
59487;BME280;45298;54.918;73.504;2023-02-02T04:16:12;101527.03;;;-20.85;72.53
59487;BME280;45298;54.918;73.504;2023-02-02T04:18:41;101508.28;;;-20.78;72.95
59487;BME280;45298;54.918;73.504;2023-02-02T04:21:10;101508.78;;;-20.72;72.35
59487;BME280;45298;54.918;73.504;2023-02-02T04:23:39;101517.44;;;-20.60;72.77
59487;BME280;45298;54.918;73.504;2023-02-02T04:26:07;101554.25;;;-20.32;72.79
59487;BME280;45298;54.918;73.504;2023-02-02T04:28:36;101518.59;;;-20.46;72.29
59487;BME280;45298;54.918;73.504;2023-02-02T04:31:06;101560.16;;;-20.13;72.66
59487;BME280;45298;54.918;73.504;2023-02-02T04:33:34;101495.94;;;-20.35;72.70
59487;BME280;45298;54.918;73.504;2023-02-02T04:36:04;101507.72;;;-20.26;72.34
59487;BME280;45298;54.918;73.504;2023-02-02T04:38:35;101480.31;;;-20.31;72.84
59487;BME280;45298;54.918;73.504;2023-02-02T04:41:06;101547.16;;;-19.86;72.70
59487;BME280;45298;54.918;73.504;2023-02-02T04:43:36;101557.91;;;-19.68;72.86
59487;BME280;45298;54.918;73.504;2023-02-02T04:46:06;101548.72;;;-19.68;72.30
59487;BME280;45298;54.918;73.504;2023-02-02T04:48:35;101547.84;;;-19.58;72.82
59487;BME280;45298;54.918;73.504;2023-02-02T04:51:06;101535.59;;;-19.53;72.22
59487;BME280;45298;54.918;73.504;2023-02-02T04:53:36;101534.59;;;-19.45;72.70
59487;BME280;45298;54.918;73.504;2023-02-02T04:56:13;101554.41;;;-19.29;72.57
59487;BME280;45298;54.918;73.504;2023-02-02T04:58:43;101549.97;;;-19.21;72.78
59487;BME280;45298;54.918;73.504;2023-02-02T05:01:16;101532.41;;;-19.20;72.77
59487;BME280;45298;54.918;73.504;2023-02-02T05:03:45;101512.44;;;-19.27;72.08
59487;BME280;45298;54.918;73.504;2023-02-02T05:06:15;101544.69;;;-19.04;72.67
59487;BME280;45298;54.918;73.504;2023-02-02T05:08:45;101573.28;;;-18.72;72.51
59487;BME280;45298;54.918;73.504;2023-02-02T05:11:19;101547.88;;;-18.74;72.44
59487;BME280;45298;54.918;73.504;2023-02-02T05:13:51;101535.72;;;-18.67;72.75
59487;BME280;45298;54.918;73.504;2023-02-02T05:16:21;101571.41;;;-18.32;72.87
59487;BME280;45298;54.918;73.504;2023-02-02T05:18:52;101537.25;;;-18.37;72.74
59487;BME280;45298;54.918;73.504;2023-02-02T05:21:21;101535.44;;;-18.28;72.55
59487;BME280;45298;54.918;73.504;2023-02-02T05:23:50;101557.50;;;-18.04;72.80
59487;BME280;45298;54.918;73.504;2023-02-02T05:26:24;101541.19;;;-17.96;72.59
59487;BME280;45298;54.918;73.504;2023-02-02T05:28:55;101539.06;;;-17.80;72.52
59487;BME280;45298;54.918;73.504;2023-02-02T05:31:27;101559.41;;;-17.45;73.02
59487;BME280;45298;54.918;73.504;2023-02-02T05:33:57;101536.13;;;-17.40;72.32
59487;BME280;45298;54.918;73.504;2023-02-02T05:36:26;101513.97;;;-17.30;73.23
59487;BME280;45298;54.918;73.504;2023-02-02T05:38:55;101522.88;;;-17.02;72.73
59487;BME280;45298;54.918;73.504;2023-02-02T05:41:23;101572.84;;;-16.65;72.42
59487;BME280;45298;54.918;73.504;2023-02-02T05:43:52;101533.97;;;-16.64;72.09
59487;BME280;45298;54.918;73.504;2023-02-02T05:46:21;101521.28;;;-16.64;72.13
59487;BME280;45298;54.918;73.504;2023-02-02T05:48:49;101537.50;;;-16.50;72.31
59487;BME280;45298;54.918;73.504;2023-02-02T05:51:31;101564.88;;;-16.22;71.21
59487;BME280;45298;54.918;73.504;2023-02-02T05:54:01;101443.59;;;-16.86;71.43
59487;BME280;45298;54.918;73.504;2023-02-02T05:56:29;101519.16;;;-16.34;71.63
59487;BME280;45298;54.918;73.504;2023-02-02T05:58:58;101458.47;;;-16.66;72.00
59487;BME280;45298;54.918;73.504;2023-02-02T06:01:27;101544.00;;;-16.18;72.11
59487;BME280;45298;54.918;73.504;2023-02-02T06:03:56;101525.09;;;-16.21;72.50
59487;BME280;45298;54.918;73.504;2023-02-02T06:06:25;101541.88;;;-16.12;71.65
59487;BME280;45298;54.918;73.504;2023-02-02T06:08:54;101533.03;;;-16.17;71.96
59487;BME280;45298;54.918;73.504;2023-02-02T06:11:23;101542.63;;;-16.01;72.49
59487;BME280;45298;54.918;73.504;2023-02-02T06:13:55;101551.13;;;-15.88;71.33
59487;BME280;45298;54.918;73.504;2023-02-02T06:16:24;101513.06;;;-16.12;72.25
59487;BME280;45298;54.918;73.504;2023-02-02T06:18:55;101566.50;;;-15.73;71.25
59487;BME280;45298;54.918;73.504;2023-02-02T06:21:24;101559.25;;;-15.81;71.26
59487;BME280;45298;54.918;73.504;2023-02-02T06:23:53;101512.03;;;-16.02;71.96
59487;BME280;45298;54.918;73.504;2023-02-02T06:26:22;101572.31;;;-15.62;72.94
59487;BME280;45298;54.918;73.504;2023-02-02T06:28:52;101524.25;;;-15.71;72.63
59487;BME280;45298;54.918;73.504;2023-02-02T06:31:21;101538.34;;;-15.51;72.80
59487;BME280;45298;54.918;73.504;2023-02-02T06:33:56;101521.88;;;-15.56;72.37
59487;BME280;45298;54.918;73.504;2023-02-02T06:36:26;101554.38;;;-15.27;71.21
59487;BME280;45298;54.918;73.504;2023-02-02T06:38:56;101506.13;;;-15.51;72.36
59487;BME280;45298;54.918;73.504;2023-02-02T06:41:25;101520.66;;;-15.36;71.93
59487;BME280;45298;54.918;73.504;2023-02-02T06:43:53;101499.44;;;-15.37;71.97
59487;BME280;45298;54.918;73.504;2023-02-02T06:46:22;101534.66;;;-15.04;71.20
59487;BME280;45298;54.918;73.504;2023-02-02T06:48:51;101513.97;;;-15.09;72.09
59487;BME280;45298;54.918;73.504;2023-02-02T06:51:20;101500.38;;;-15.09;71.24
59487;BME280;45298;54.918;73.504;2023-02-02T06:53:49;101536.72;;;-14.85;72.23
59487;BME280;45298;54.918;73.504;2023-02-02T06:56:17;101547.81;;;-14.71;71.14
59487;BME280;45298;54.918;73.504;2023-02-02T06:58:46;101510.06;;;-14.90;71.70
59487;BME280;45298;54.918;73.504;2023-02-02T07:01:15;101533.22;;;-14.74;71.62
59487;BME280;45298;54.918;73.504;2023-02-02T07:03:47;101541.69;;;-14.60;71.31
59487;BME280;45298;54.918;73.504;2023-02-02T07:06:22;101515.84;;;-14.66;71.84
59487;BME280;45298;54.918;73.504;2023-02-02T07:08:52;101517.97;;;-14.59;71.28
59487;BME280;45298;54.918;73.504;2023-02-02T07:11:32;101460.22;;;-14.86;71.16
59487;BME280;45298;54.918;73.504;2023-02-02T07:14:09;101485.63;;;-14.60;71.48
59487;BME280;45298;54.918;73.504;2023-02-02T07:16:38;101474.97;;;-14.54;71.14
59487;BME280;45298;54.918;73.504;2023-02-02T07:19:07;101526.16;;;-14.09;71.42
59487;BME280;45298;54.918;73.504;2023-02-02T07:21:35;101495.56;;;-14.09;70.89
59487;BME280;45298;54.918;73.504;2023-02-02T07:24:05;101492.31;;;-13.78;70.88
59487;BME280;45298;54.918;73.504;2023-02-02T07:26:34;101513.78;;;-13.46;70.63
59487;BME280;45298;54.918;73.504;2023-02-02T07:29:04;101489.72;;;-13.34;70.36
59487;BME280;45298;54.918;73.504;2023-02-02T07:31:33;101529.72;;;-12.90;70.05
59487;BME280;45298;54.918;73.504;2023-02-02T07:34:03;101508.31;;;-12.77;70.64
59487;BME280;45298;54.918;73.504;2023-02-02T07:36:32;101487.22;;;-12.73;70.15
59487;BME280;45298;54.918;73.504;2023-02-02T07:39:03;101521.69;;;-12.35;69.83
59487;BME280;45298;54.918;73.504;2023-02-02T07:41:35;101515.13;;;-12.15;69.30
59487;BME280;45298;54.918;73.504;2023-02-02T07:44:14;101488.41;;;-12.20;69.08
59487;BME280;45298;54.918;73.504;2023-02-02T07:46:45;101510.19;;;-12.11;69.03
59487;BME280;45298;54.918;73.504;2023-02-02T07:49:16;101487.63;;;-12.02;68.78
59487;BME280;45298;54.918;73.504;2023-02-02T07:51:45;101472.09;;;-12.05;69.25
59487;BME280;45298;54.918;73.504;2023-02-02T07:54:16;101487.84;;;-11.97;69.02
59487;BME280;45298;54.918;73.504;2023-02-02T07:56:45;101490.81;;;-11.90;69.79
59487;BME280;45298;54.918;73.504;2023-02-02T07:59:14;101469.22;;;-11.95;69.11
59487;BME280;45298;54.918;73.504;2023-02-02T08:01:43;101453.28;;;-12.07;69.13
59487;BME280;45298;54.918;73.504;2023-02-02T08:04:12;101487.47;;;-11.89;69.53
59487;BME280;45298;54.918;73.504;2023-02-02T08:06:40;101473.38;;;-11.97;69.08
59487;BME280;45298;54.918;73.504;2023-02-02T08:09:09;101473.53;;;-11.94;69.48
59487;BME280;45298;54.918;73.504;2023-02-02T08:11:38;101426.16;;;-12.20;68.30
59487;BME280;45298;54.918;73.504;2023-02-02T08:14:09;101502.59;;;-11.77;69.01
59487;BME280;45298;54.918;73.504;2023-02-02T08:16:38;101488.03;;;-11.78;69.22
59487;BME280;45298;54.918;73.504;2023-02-02T08:19:09;101499.69;;;-11.66;68.90
59487;BME280;45298;54.918;73.504;2023-02-02T08:21:38;101484.56;;;-11.78;69.13
59487;BME280;45298;54.918;73.504;2023-02-02T08:24:07;101486.66;;;-11.71;68.54
59487;BME280;45298;54.918;73.504;2023-02-02T08:26:36;101453.41;;;-11.88;68.75
59487;BME280;45298;54.918;73.504;2023-02-02T08:29:07;101474.44;;;-11.77;69.42
59487;BME280;45298;54.918;73.504;2023-02-02T08:31:38;101487.06;;;-11.63;69.16
59487;BME280;45298;54.918;73.504;2023-02-02T08:34:10;101502.97;;;-11.52;69.58
59487;BME280;45298;54.918;73.504;2023-02-02T08:36:43;101483.59;;;-11.64;69.06
59487;BME280;45298;54.918;73.504;2023-02-02T08:39:12;101503.38;;;-11.61;69.01
59487;BME280;45298;54.918;73.504;2023-02-02T08:41:41;101455.97;;;-11.88;69.39
59487;BME280;45298;54.918;73.504;2023-02-02T08:44:14;101403.59;;;-12.27;69.06
59487;BME280;45298;54.918;73.504;2023-02-02T08:46:43;101471.22;;;-11.89;69.23
59487;BME280;45298;54.918;73.504;2023-02-02T08:49:13;101499.75;;;-11.81;68.78
59487;BME280;45298;54.918;73.504;2023-02-02T08:51:44;101501.34;;;-11.84;69.13
59487;BME280;45298;54.918;73.504;2023-02-02T08:54:13;101459.66;;;-11.99;69.00
59487;BME280;45298;54.918;73.504;2023-02-02T08:56:42;101439.34;;;-12.12;68.76
59487;BME280;45298;54.918;73.504;2023-02-02T08:59:11;101463.94;;;-11.98;69.14
59487;BME280;45298;54.918;73.504;2023-02-02T09:01:39;101435.38;;;-12.07;68.44
59487;BME280;45298;54.918;73.504;2023-02-02T09:04:13;101366.91;;;-12.45;68.82
59487;BME280;45298;54.918;73.504;2023-02-02T09:06:43;101448.59;;;-11.98;69.10
59487;BME280;45298;54.918;73.504;2023-02-02T09:09:15;101455.53;;;-11.95;68.25
59487;BME280;45298;54.918;73.504;2023-02-02T09:11:44;101372.59;;;-12.50;68.66
59487;BME280;45298;54.918;73.504;2023-02-02T09:14:13;101420.66;;;-12.28;68.24
59487;BME280;45298;54.918;73.504;2023-02-02T09:16:42;101417.91;;;-12.48;67.99
59487;BME280;45298;54.918;73.504;2023-02-02T09:19:11;101465.09;;;-12.26;69.03
59487;BME280;45298;54.918;73.504;2023-02-02T09:21:40;101470.66;;;-12.33;69.05
59487;BME280;45298;54.918;73.504;2023-02-02T09:24:11;101446.78;;;-12.65;68.76
59487;BME280;45298;54.918;73.504;2023-02-02T09:26:41;101437.00;;;-12.72;68.67
59487;BME280;45298;54.918;73.504;2023-02-02T09:29:12;101457.00;;;-12.65;68.00
59487;BME280;45298;54.918;73.504;2023-02-02T09:31:41;101407.47;;;-12.99;67.89
59487;BME280;45298;54.918;73.504;2023-02-02T09:34:11;101467.69;;;-12.72;68.59
59487;BME280;45298;54.918;73.504;2023-02-02T09:36:41;101360.75;;;-13.28;68.38
59487;BME280;45298;54.918;73.504;2023-02-02T09:39:11;101435.28;;;-12.88;68.29
59487;BME280;45298;54.918;73.504;2023-02-02T09:47:54;101479.84;;;-12.68;67.97
59487;BME280;45298;54.918;73.504;2023-02-02T09:50:51;101426.34;;;-13.12;68.43
59487;BME280;45298;54.918;73.504;2023-02-02T09:53:29;101468.31;;;-12.92;68.19
59487;BME280;45298;54.918;73.504;2023-02-02T09:56:07;101479.06;;;-12.97;68.51
59487;BME280;45298;54.918;73.504;2023-02-02T09:58:47;101454.25;;;-13.15;68.66
59487;BME280;45298;54.918;73.504;2023-02-02T10:01:25;101477.59;;;-13.09;68.44
59487;BME280;45298;54.918;73.504;2023-02-02T10:04:16;101463.13;;;-13.23;68.61
59487;BME280;45298;54.918;73.504;2023-02-02T10:06:52;101479.78;;;-13.15;69.04
59487;BME280;45298;54.918;73.504;2023-02-02T10:23:24;101500.31;;;-13.43;68.46
59487;BME280;45298;54.918;73.504;2023-02-02T10:37:16;101492.50;;;-13.75;69.27
59487;BME280;45298;54.918;73.504;2023-02-02T10:45:47;101461.63;;;-14.08;69.13
59487;BME280;45298;54.918;73.504;2023-02-02T10:48:30;101437.38;;;-14.30;69.29
59487;BME280;45298;54.918;73.504;2023-02-02T10:51:15;101467.06;;;-14.17;68.99
59487;BME280;45298;54.918;73.504;2023-02-02T10:53:54;101450.31;;;-14.40;69.63
59487;BME280;45298;54.918;73.504;2023-02-02T10:56:33;101508.50;;;-14.19;69.19
59487;BME280;45298;54.918;73.504;2023-02-02T10:59:10;101464.47;;;-14.45;69.80
59487;BME280;45298;54.918;73.504;2023-02-02T11:01:43;101499.84;;;-14.36;69.19
59487;BME280;45298;54.918;73.504;2023-02-02T11:04:12;101453.63;;;-14.69;69.88
59487;BME280;45298;54.918;73.504;2023-02-02T11:07:00;101496.03;;;-14.56;69.43
59487;BME280;45298;54.918;73.504;2023-02-02T11:09:40;101461.69;;;-14.90;69.88
59487;BME280;45298;54.918;73.504;2023-02-02T11:12:17;101489.69;;;-14.90;69.44
59487;BME280;45298;54.918;73.504;2023-02-02T11:17:34;101457.16;;;-15.21;69.96
59487;BME280;45298;54.918;73.504;2023-02-02T11:20:32;101485.66;;;-15.13;69.23
59487;BME280;45298;54.918;73.504;2023-02-02T11:23:03;101489.38;;;-15.22;69.88
59487;BME280;45298;54.918;73.504;2023-02-02T11:25:37;101444.31;;;-15.50;70.00
59487;BME280;45298;54.918;73.504;2023-02-02T11:28:18;101480.34;;;-15.43;70.14
59487;BME280;45298;54.918;73.504;2023-02-02T11:30:51;101533.66;;;-15.45;69.98
59487;BME280;45298;54.918;73.504;2023-02-02T11:33:32;101492.91;;;-15.58;70.62
59487;BME280;45298;54.918;73.504;2023-02-02T11:36:17;101491.91;;;-15.60;69.72
59487;BME280;45298;54.918;73.504;2023-02-02T11:38:47;101487.31;;;-15.66;70.49
59487;BME280;45298;54.918;73.504;2023-02-02T11:41:16;101482.59;;;-15.73;70.92
59487;BME280;45298;54.918;73.504;2023-02-02T11:43:51;101487.97;;;-15.69;70.68
59487;BME280;45298;54.918;73.504;2023-02-02T11:46:23;101438.09;;;-16.05;70.57
59487;BME280;45298;54.918;73.504;2023-02-02T11:49:11;101473.88;;;-15.90;71.02
59487;BME280;45298;54.918;73.504;2023-02-02T11:51:42;101478.22;;;-16.01;70.78
59487;BME280;45298;54.918;73.504;2023-02-02T11:54:17;101447.22;;;-16.21;70.74
59487;BME280;45298;54.918;73.504;2023-02-02T11:56:51;101455.09;;;-16.30;70.19
59487;BME280;45298;54.918;73.504;2023-02-02T11:59:42;101486.78;;;-16.24;70.21
59487;BME280;45298;54.918;73.504;2023-02-02T12:05:11;101436.63;;;-16.76;70.10
59487;BME280;45298;54.918;73.504;2023-02-02T12:07:42;101485.31;;;-16.58;70.88
59487;BME280;45298;54.918;73.504;2023-02-02T12:10:41;101468.09;;;-16.74;70.92
59487;BME280;45298;54.918;73.504;2023-02-02T12:13:51;101469.31;;;-16.81;71.16
59487;BME280;45298;54.918;73.504;2023-02-02T12:21:58;101492.03;;;-16.82;71.37
59487;BME280;45298;54.918;73.504;2023-02-02T12:24:36;101486.19;;;-16.93;70.27
59487;BME280;45298;54.918;73.504;2023-02-02T12:30:46;101478.81;;;-17.14;70.89
59487;BME280;45298;54.918;73.504;2023-02-02T12:36:25;101489.38;;;-17.32;71.17
59487;BME280;45298;54.918;73.504;2023-02-02T12:44:31;101479.13;;;-17.45;71.31
59487;BME280;45298;54.918;73.504;2023-02-02T12:50:02;101470.94;;;-17.53;71.58
59487;BME280;45298;54.918;73.504;2023-02-02T12:55:59;101473.97;;;-17.69;71.11
59487;BME280;45298;54.918;73.504;2023-02-02T13:10:22;101473.09;;;-18.03;71.38
59487;BME280;45298;54.918;73.504;2023-02-02T13:13:43;101468.69;;;-18.06;71.55
59487;BME280;45298;54.918;73.504;2023-02-02T13:16:13;101428.66;;;-18.22;71.59
59487;BME280;45298;54.918;73.504;2023-02-02T13:18:49;101437.66;;;-18.26;71.46
59487;BME280;45298;54.918;73.504;2023-02-02T13:21:21;101467.78;;;-18.18;71.47
59487;BME280;45298;54.918;73.504;2023-02-02T13:23:55;101407.75;;;-18.64;71.41
59487;BME280;45298;54.918;73.504;2023-02-02T13:26:45;101360.25;;;-19.01;71.55
59487;BME280;45298;54.918;73.504;2023-02-02T13:34:47;101479.25;;;-18.34;71.78
59487;BME280;45298;54.918;73.504;2023-02-02T13:37:35;101464.63;;;-18.48;71.73
59487;BME280;45298;54.918;73.504;2023-02-02T13:53:45;101502.22;;;-18.86;71.28
59487;BME280;45298;54.918;73.504;2023-02-02T13:56:38;101454.00;;;-19.09;71.42
59487;BME280;45298;54.918;73.504;2023-02-02T14:01:46;101463.25;;;-19.20;71.57
59487;BME280;45298;54.918;73.504;2023-02-02T14:04:23;101472.13;;;-19.25;71.50
59487;BME280;45298;54.918;73.504;2023-02-02T14:06:58;101486.75;;;-19.21;71.53
59487;BME280;45298;54.918;73.504;2023-02-02T14:09:31;101411.03;;;-19.63;71.98
59487;BME280;45298;54.918;73.504;2023-02-02T14:12:04;101472.09;;;-19.15;72.08
59487;BME280;45298;54.918;73.504;2023-02-02T14:14:35;101473.50;;;-19.19;71.92
59487;BME280;45298;54.918;73.504;2023-02-02T14:20:00;101468.47;;;-19.39;72.10
59487;BME280;45298;54.918;73.504;2023-02-02T14:22:45;101494.00;;;-19.36;72.33
59487;BME280;45298;54.918;73.504;2023-02-02T14:28:07;101342.75;;;-19.95;72.74
59487;BME280;45298;54.918;73.504;2023-02-02T14:30:38;101456.81;;;-19.27;72.19
59487;BME280;45298;54.918;73.504;2023-02-02T14:41:14;101474.13;;;-19.21;71.76
59487;BME280;45298;54.918;73.504;2023-02-02T14:44:05;101482.75;;;-19.29;70.96
59487;BME280;45298;54.918;73.504;2023-02-02T14:46:37;101343.00;;;-20.23;71.38
59487;BME280;45298;54.918;73.504;2023-02-02T14:49:09;101421.91;;;-19.95;71.35
59487;BME280;45298;54.918;73.504;2023-02-02T14:51:44;101477.06;;;-19.68;71.80
59487;BME280;45298;54.918;73.504;2023-02-02T14:54:19;101477.84;;;-19.80;71.53
59487;BME280;45298;54.918;73.504;2023-02-02T14:56:55;101404.34;;;-20.24;71.69
59487;BME280;45298;54.918;73.504;2023-02-02T14:59:35;101440.47;;;-20.04;71.96
59487;BME280;45298;54.918;73.504;2023-02-02T15:04:45;101393.50;;;-20.23;71.98
59487;BME280;45298;54.918;73.504;2023-02-02T15:09:55;101439.72;;;-20.03;72.13
59487;BME280;45298;54.918;73.504;2023-02-02T15:12:35;101440.47;;;-20.15;71.40
59487;BME280;45298;54.918;73.504;2023-02-02T15:15:22;101395.50;;;-20.50;71.39
59487;BME280;45298;54.918;73.504;2023-02-02T15:20:40;101431.84;;;-20.38;71.81
59487;BME280;45298;54.918;73.504;2023-02-02T15:23:30;101443.97;;;-20.33;71.60
59487;BME280;45298;54.918;73.504;2023-02-02T15:26:18;101472.53;;;-20.14;72.93
59487;BME280;45298;54.918;73.504;2023-02-02T15:33:57;101444.00;;;-20.13;71.99